sensor_id;sensor_type;location;lat;lon;timestamp;P1;durP1;ratioP1;P2;durP2;ratioP2
40154;SDS011;25875;48.202;16.334;2023-06-10T00:01:37;7.80;;;3.72;;
40154;SDS011;25875;48.202;16.334;2023-06-10T00:04:04;6.35;;;4.15;;
40154;SDS011;25875;48.202;16.334;2023-06-10T00:06:31;4.28;;;3.67;;
40154;SDS011;25875;48.202;16.334;2023-06-10T00:09:01;4.28;;;3.70;;
40154;SDS011;25875;48.202;16.334;2023-06-10T00:11:29;4.75;;;4.22;;
40154;SDS011;25875;48.202;16.334;2023-06-10T00:13:56;4.72;;;3.80;;
40154;SDS011;25875;48.202;16.334;2023-06-10T00:16:23;4.25;;;3.65;;
40154;SDS011;25875;48.202;16.334;2023-06-10T00:18:51;4.97;;;4.15;;
40154;SDS011;25875;48.202;16.334;2023-06-10T00:21:20;4.60;;;3.65;;
40154;SDS011;25875;48.202;16.334;2023-06-10T00:23:49;4.53;;;4.05;;
40154;SDS011;25875;48.202;16.334;2023-06-10T00:26:16;5.03;;;4.18;;
40154;SDS011;25875;48.202;16.334;2023-06-10T00:28:43;4.20;;;3.75;;
40154;SDS011;25875;48.202;16.334;2023-06-10T00:31:10;5.32;;;4.28;;
40154;SDS011;25875;48.202;16.334;2023-06-10T00:33:37;4.88;;;4.10;;
40154;SDS011;25875;48.202;16.334;2023-06-10T00:36:05;5.18;;;4.68;;
40154;SDS011;25875;48.202;16.334;2023-06-10T00:38:32;6.53;;;4.97;;
40154;SDS011;25875;48.202;16.334;2023-06-10T00:40:59;4.80;;;4.07;;
40154;SDS011;25875;48.202;16.334;2023-06-10T00:43:26;5.30;;;4.30;;
40154;SDS011;25875;48.202;16.334;2023-06-10T00:45:53;6.45;;;4.57;;
40154;SDS011;25875;48.202;16.334;2023-06-10T00:48:20;5.25;;;4.35;;
40154;SDS011;25875;48.202;16.334;2023-06-10T00:50:47;7.68;;;4.40;;
40154;SDS011;25875;48.202;16.334;2023-06-10T00:53:16;4.88;;;4.22;;
40154;SDS011;25875;48.202;16.334;2023-06-10T00:55:43;5.10;;;4.13;;
40154;SDS011;25875;48.202;16.334;2023-06-10T00:58:10;5.72;;;4.43;;
40154;SDS011;25875;48.202;16.334;2023-06-10T01:00:37;6.20;;;4.43;;
40154;SDS011;25875;48.202;16.334;2023-06-10T01:03:04;5.97;;;4.80;;
40154;SDS011;25875;48.202;16.334;2023-06-10T01:05:32;5.63;;;4.72;;
40154;SDS011;25875;48.202;16.334;2023-06-10T01:08:01;5.40;;;4.70;;
40154;SDS011;25875;48.202;16.334;2023-06-10T01:10:32;4.78;;;4.03;;
40154;SDS011;25875;48.202;16.334;2023-06-10T01:13:02;5.13;;;4.63;;
40154;SDS011;25875;48.202;16.334;2023-06-10T01:15:32;6.78;;;4.82;;
40154;SDS011;25875;48.202;16.334;2023-06-10T01:18:01;6.47;;;4.32;;
40154;SDS011;25875;48.202;16.334;2023-06-10T01:20:29;5.10;;;4.53;;
40154;SDS011;25875;48.202;16.334;2023-06-10T01:22:58;5.47;;;4.88;;
40154;SDS011;25875;48.202;16.334;2023-06-10T01:25:26;7.45;;;5.47;;
40154;SDS011;25875;48.202;16.334;2023-06-10T01:27:54;6.18;;;5.53;;
40154;SDS011;25875;48.202;16.334;2023-06-10T01:30:30;6.45;;;5.53;;
40154;SDS011;25875;48.202;16.334;2023-06-10T01:33:10;7.32;;;5.80;;
40154;SDS011;25875;48.202;16.334;2023-06-10T01:35:41;7.35;;;6.20;;
40154;SDS011;25875;48.202;16.334;2023-06-10T01:38:12;6.97;;;6.28;;
40154;SDS011;25875;48.202;16.334;2023-06-10T01:40:41;5.85;;;5.25;;
40154;SDS011;25875;48.202;16.334;2023-06-10T01:43:09;6.47;;;5.55;;
40154;SDS011;25875;48.202;16.334;2023-06-10T01:45:36;8.27;;;5.97;;
40154;SDS011;25875;48.202;16.334;2023-06-10T01:48:02;8.05;;;6.82;;
40154;SDS011;25875;48.202;16.334;2023-06-10T01:50:29;7.57;;;6.40;;
40154;SDS011;25875;48.202;16.334;2023-06-10T01:52:57;9.07;;;7.57;;
40154;SDS011;25875;48.202;16.334;2023-06-10T01:55:26;12.27;;;6.45;;
40154;SDS011;25875;48.202;16.334;2023-06-10T01:57:53;7.32;;;6.25;;
40154;SDS011;25875;48.202;16.334;2023-06-10T02:00:20;8.82;;;6.97;;
40154;SDS011;25875;48.202;16.334;2023-06-10T02:02:47;8.88;;;7.97;;
40154;SDS011;25875;48.202;16.334;2023-06-10T02:05:15;9.80;;;8.77;;
40154;SDS011;25875;48.202;16.334;2023-06-10T02:07:43;9.88;;;8.80;;
40154;SDS011;25875;48.202;16.334;2023-06-10T02:10:10;9.23;;;8.20;;
40154;SDS011;25875;48.202;16.334;2023-06-10T02:12:38;8.73;;;7.68;;
40154;SDS011;25875;48.202;16.334;2023-06-10T02:15:05;8.90;;;7.82;;
40154;SDS011;25875;48.202;16.334;2023-06-10T02:17:33;9.35;;;8.35;;
40154;SDS011;25875;48.202;16.334;2023-06-10T02:19:59;8.65;;;7.75;;
40154;SDS011;25875;48.202;16.334;2023-06-10T02:22:32;8.00;;;7.05;;
40154;SDS011;25875;48.202;16.334;2023-06-10T02:24:59;8.95;;;7.25;;
40154;SDS011;25875;48.202;16.334;2023-06-10T02:27:26;8.73;;;7.18;;
40154;SDS011;25875;48.202;16.334;2023-06-10T02:29:54;8.85;;;7.95;;
40154;SDS011;25875;48.202;16.334;2023-06-10T02:32:21;7.35;;;6.65;;
40154;SDS011;25875;48.202;16.334;2023-06-10T02:34:48;7.82;;;7.03;;
40154;SDS011;25875;48.202;16.334;2023-06-10T02:37:15;8.20;;;7.45;;
40154;SDS011;25875;48.202;16.334;2023-06-10T02:39:42;9.35;;;8.23;;
40154;SDS011;25875;48.202;16.334;2023-06-10T02:42:09;7.78;;;6.93;;
40154;SDS011;25875;48.202;16.334;2023-06-10T02:44:36;9.75;;;7.93;;
40154;SDS011;25875;48.202;16.334;2023-06-10T02:47:05;8.02;;;7.22;;
40154;SDS011;25875;48.202;16.334;2023-06-10T02:49:32;10.68;;;7.57;;
40154;SDS011;25875;48.202;16.334;2023-06-10T02:51:59;8.45;;;7.53;;
40154;SDS011;25875;48.202;16.334;2023-06-10T02:54:27;8.60;;;7.70;;
40154;SDS011;25875;48.202;16.334;2023-06-10T02:56:54;8.27;;;7.10;;
40154;SDS011;25875;48.202;16.334;2023-06-10T02:59:21;8.15;;;7.35;;
40154;SDS011;25875;48.202;16.334;2023-06-10T03:01:48;9.70;;;8.07;;
40154;SDS011;25875;48.202;16.334;2023-06-10T03:04:16;8.30;;;7.43;;
40154;SDS011;25875;48.202;16.334;2023-06-10T03:06:43;8.98;;;7.07;;
40154;SDS011;25875;48.202;16.334;2023-06-10T03:09:12;7.28;;;6.57;;
40154;SDS011;25875;48.202;16.334;2023-06-10T03:11:41;8.45;;;7.55;;
40154;SDS011;25875;48.202;16.334;2023-06-10T03:14:08;10.25;;;7.57;;
40154;SDS011;25875;48.202;16.334;2023-06-10T03:16:34;7.97;;;6.82;;
40154;SDS011;25875;48.202;16.334;2023-06-10T03:19:05;8.80;;;7.20;;
40154;SDS011;25875;48.202;16.334;2023-06-10T03:21:35;10.43;;;8.13;;
40154;SDS011;25875;48.202;16.334;2023-06-10T03:24:02;8.88;;;8.07;;
40154;SDS011;25875;48.202;16.334;2023-06-10T03:26:30;9.23;;;8.32;;
40154;SDS011;25875;48.202;16.334;2023-06-10T03:28:57;10.05;;;8.73;;
40154;SDS011;25875;48.202;16.334;2023-06-10T03:31:24;12.85;;;8.30;;
40154;SDS011;25875;48.202;16.334;2023-06-10T03:33:51;9.00;;;7.72;;
40154;SDS011;25875;48.202;16.334;2023-06-10T03:36:18;8.27;;;7.15;;
40154;SDS011;25875;48.202;16.334;2023-06-10T03:38:46;9.02;;;8.13;;
40154;SDS011;25875;48.202;16.334;2023-06-10T03:41:13;9.07;;;7.68;;
40154;SDS011;25875;48.202;16.334;2023-06-10T03:43:40;8.20;;;7.22;;
40154;SDS011;25875;48.202;16.334;2023-06-10T03:46:07;9.85;;;8.32;;
40154;SDS011;25875;48.202;16.334;2023-06-10T03:48:33;9.80;;;7.90;;
40154;SDS011;25875;48.202;16.334;2023-06-10T03:51:01;9.10;;;8.25;;
40154;SDS011;25875;48.202;16.334;2023-06-10T03:53:28;9.68;;;8.27;;
40154;SDS011;25875;48.202;16.334;2023-06-10T03:55:57;11.40;;;8.90;;
40154;SDS011;25875;48.202;16.334;2023-06-10T03:58:24;9.20;;;8.20;;
40154;SDS011;25875;48.202;16.334;2023-06-10T04:00:51;9.95;;;8.95;;
40154;SDS011;25875;48.202;16.334;2023-06-10T04:03:18;10.43;;;8.45;;
40154;SDS011;25875;48.202;16.334;2023-06-10T04:05:46;10.68;;;9.20;;
40154;SDS011;25875;48.202;16.334;2023-06-10T04:08:13;10.05;;;9.07;;
40154;SDS011;25875;48.202;16.334;2023-06-10T04:10:40;11.77;;;10.65;;
40154;SDS011;25875;48.202;16.334;2023-06-10T04:13:08;11.32;;;10.05;;
40154;SDS011;25875;48.202;16.334;2023-06-10T04:15:35;12.43;;;10.50;;
40154;SDS011;25875;48.202;16.334;2023-06-10T04:18:01;12.02;;;10.77;;
40154;SDS011;25875;48.202;16.334;2023-06-10T04:20:28;10.57;;;9.27;;
40154;SDS011;25875;48.202;16.334;2023-06-10T04:22:55;11.65;;;10.45;;
40154;SDS011;25875;48.202;16.334;2023-06-10T04:25:22;11.63;;;10.43;;
40154;SDS011;25875;48.202;16.334;2023-06-10T04:27:49;13.65;;;12.23;;
40154;SDS011;25875;48.202;16.334;2023-06-10T04:30:17;11.68;;;10.48;;
40154;SDS011;25875;48.202;16.334;2023-06-10T04:32:44;12.40;;;11.10;;
40154;SDS011;25875;48.202;16.334;2023-06-10T04:35:12;12.40;;;11.10;;
40154;SDS011;25875;48.202;16.334;2023-06-10T04:37:39;10.85;;;9.75;;
40154;SDS011;25875;48.202;16.334;2023-06-10T04:40:06;10.65;;;9.52;;
40154;SDS011;25875;48.202;16.334;2023-06-10T04:42:34;11.65;;;10.43;;
40154;SDS011;25875;48.202;16.334;2023-06-10T04:45:00;12.57;;;11.27;;
40154;SDS011;25875;48.202;16.334;2023-06-10T04:47:29;11.88;;;10.68;;
40154;SDS011;25875;48.202;16.334;2023-06-10T04:49:58;10.88;;;9.77;;
40154;SDS011;25875;48.202;16.334;2023-06-10T04:52:25;11.77;;;10.48;;
40154;SDS011;25875;48.202;16.334;2023-06-10T04:54:51;13.38;;;11.07;;
40154;SDS011;25875;48.202;16.334;2023-06-10T04:57:18;11.10;;;9.52;;
40154;SDS011;25875;48.202;16.334;2023-06-10T04:59:45;11.80;;;10.63;;
40154;SDS011;25875;48.202;16.334;2023-06-10T05:02:12;12.00;;;10.80;;
40154;SDS011;25875;48.202;16.334;2023-06-10T05:04:40;13.07;;;11.45;;
40154;SDS011;25875;48.202;16.334;2023-06-10T05:07:07;13.15;;;11.75;;
40154;SDS011;25875;48.202;16.334;2023-06-10T05:09:34;12.75;;;11.43;;
40154;SDS011;25875;48.202;16.334;2023-06-10T05:12:00;13.73;;;11.98;;
40154;SDS011;25875;48.202;16.334;2023-06-10T05:14:27;13.40;;;12.10;;
40154;SDS011;25875;48.202;16.334;2023-06-10T05:16:54;17.23;;;12.75;;
40154;SDS011;25875;48.202;16.334;2023-06-10T05:19:21;14.65;;;13.10;;
40154;SDS011;25875;48.202;16.334;2023-06-10T05:21:49;14.20;;;12.80;;
40154;SDS011;25875;48.202;16.334;2023-06-10T05:24:15;14.18;;;12.77;;
40154;SDS011;25875;48.202;16.334;2023-06-10T05:26:42;15.68;;;14.07;;
40154;SDS011;25875;48.202;16.334;2023-06-10T05:29:09;15.52;;;13.80;;
40154;SDS011;25875;48.202;16.334;2023-06-10T05:31:36;14.80;;;12.80;;
40154;SDS011;25875;48.202;16.334;2023-06-10T05:34:02;13.80;;;12.38;;
40154;SDS011;25875;48.202;16.334;2023-06-10T05:36:29;16.25;;;14.25;;
40154;SDS011;25875;48.202;16.334;2023-06-10T05:38:58;14.88;;;13.35;;
40154;SDS011;25875;48.202;16.334;2023-06-10T05:41:25;14.50;;;13.00;;
40154;SDS011;25875;48.202;16.334;2023-06-10T05:43:52;14.05;;;12.48;;
40154;SDS011;25875;48.202;16.334;2023-06-10T05:46:19;15.05;;;13.55;;
40154;SDS011;25875;48.202;16.334;2023-06-10T05:48:46;15.57;;;12.57;;
40154;SDS011;25875;48.202;16.334;2023-06-10T05:51:12;13.80;;;12.48;;
40154;SDS011;25875;48.202;16.334;2023-06-10T05:53:39;14.32;;;12.90;;
40154;SDS011;25875;48.202;16.334;2023-06-10T05:56:07;12.98;;;11.70;;
40154;SDS011;25875;48.202;16.334;2023-06-10T05:58:34;14.20;;;12.75;;
40154;SDS011;25875;48.202;16.334;2023-06-10T06:01:01;13.38;;;12.07;;
40154;SDS011;25875;48.202;16.334;2023-06-10T06:03:28;13.60;;;12.20;;
40154;SDS011;25875;48.202;16.334;2023-06-10T06:05:54;15.07;;;11.85;;
40154;SDS011;25875;48.202;16.334;2023-06-10T06:08:21;14.80;;;13.40;;
40154;SDS011;25875;48.202;16.334;2023-06-10T06:10:48;15.55;;;13.95;;
40154;SDS011;25875;48.202;16.334;2023-06-10T06:13:16;16.42;;;12.93;;
40154;SDS011;25875;48.202;16.334;2023-06-10T06:15:43;14.23;;;12.73;;
40154;SDS011;25875;48.202;16.334;2023-06-10T06:18:10;14.77;;;12.23;;
40154;SDS011;25875;48.202;16.334;2023-06-10T06:20:36;14.40;;;12.93;;
40154;SDS011;25875;48.202;16.334;2023-06-10T06:23:03;17.00;;;13.65;;
40154;SDS011;25875;48.202;16.334;2023-06-10T06:25:30;16.23;;;14.38;;
40154;SDS011;25875;48.202;16.334;2023-06-10T06:27:57;15.27;;;13.27;;
40154;SDS011;25875;48.202;16.334;2023-06-10T06:30:25;17.70;;;14.25;;
40154;SDS011;25875;48.202;16.334;2023-06-10T06:32:52;15.57;;;13.63;;
40154;SDS011;25875;48.202;16.334;2023-06-10T06:35:18;15.15;;;13.43;;
40154;SDS011;25875;48.202;16.334;2023-06-10T06:37:45;17.85;;;14.73;;
40154;SDS011;25875;48.202;16.334;2023-06-10T06:40:12;16.20;;;14.45;;
40154;SDS011;25875;48.202;16.334;2023-06-10T06:42:39;17.60;;;14.85;;
40154;SDS011;25875;48.202;16.334;2023-06-10T06:45:06;15.68;;;14.07;;
40154;SDS011;25875;48.202;16.334;2023-06-10T06:47:35;20.30;;;14.45;;
40154;SDS011;25875;48.202;16.334;2023-06-10T06:50:02;17.25;;;15.25;;
40154;SDS011;25875;48.202;16.334;2023-06-10T06:52:29;15.10;;;13.38;;
40154;SDS011;25875;48.202;16.334;2023-06-10T06:54:55;16.38;;;14.50;;
40154;SDS011;25875;48.202;16.334;2023-06-10T06:57:22;19.52;;;16.05;;
40154;SDS011;25875;48.202;16.334;2023-06-10T06:59:49;14.82;;;13.32;;
40154;SDS011;25875;48.202;16.334;2023-06-10T07:02:16;16.30;;;14.68;;
40154;SDS011;25875;48.202;16.334;2023-06-10T07:04:45;16.20;;;14.57;;
40154;SDS011;25875;48.202;16.334;2023-06-10T07:07:14;16.70;;;14.95;;
40154;SDS011;25875;48.202;16.334;2023-06-10T07:09:40;17.17;;;15.45;;
40154;SDS011;25875;48.202;16.334;2023-06-10T07:12:07;16.52;;;14.77;;
40154;SDS011;25875;48.202;16.334;2023-06-10T07:14:35;15.80;;;14.30;;
40154;SDS011;25875;48.202;16.334;2023-06-10T07:17:02;15.50;;;13.95;;
40154;SDS011;25875;48.202;16.334;2023-06-10T07:19:28;16.73;;;14.18;;
40154;SDS011;25875;48.202;16.334;2023-06-10T07:21:57;21.08;;;13.93;;
40154;SDS011;25875;48.202;16.334;2023-06-10T07:24:23;16.23;;;14.18;;
40154;SDS011;25875;48.202;16.334;2023-06-10T07:26:50;16.80;;;13.60;;
40154;SDS011;25875;48.202;16.334;2023-06-10T07:29:17;17.25;;;13.88;;
40154;SDS011;25875;48.202;16.334;2023-06-10T07:31:43;15.68;;;14.07;;
40154;SDS011;25875;48.202;16.334;2023-06-10T07:34:10;16.98;;;15.05;;
40154;SDS011;25875;48.202;16.334;2023-06-10T07:36:37;17.50;;;15.02;;
40154;SDS011;25875;48.202;16.334;2023-06-10T07:39:05;16.83;;;15.02;;
40154;SDS011;25875;48.202;16.334;2023-06-10T07:41:33;16.20;;;14.63;;
40154;SDS011;25875;48.202;16.334;2023-06-10T07:44:00;15.20;;;13.35;;
40154;SDS011;25875;48.202;16.334;2023-06-10T07:46:27;16.55;;;14.30;;
40154;SDS011;25875;48.202;16.334;2023-06-10T07:48:53;16.60;;;14.93;;
40154;SDS011;25875;48.202;16.334;2023-06-10T07:51:20;18.80;;;15.15;;
40154;SDS011;25875;48.202;16.334;2023-06-10T07:53:47;17.10;;;14.68;;
40154;SDS011;25875;48.202;16.334;2023-06-10T07:56:16;16.45;;;13.77;;
40154;SDS011;25875;48.202;16.334;2023-06-10T07:58:43;15.35;;;13.35;;
40154;SDS011;25875;48.202;16.334;2023-06-10T08:01:09;17.52;;;14.88;;
40154;SDS011;25875;48.202;16.334;2023-06-10T08:03:36;15.30;;;13.70;;
40154;SDS011;25875;48.202;16.334;2023-06-10T08:06:03;15.98;;;14.32;;
40154;SDS011;25875;48.202;16.334;2023-06-10T08:08:30;14.75;;;13.20;;
40154;SDS011;25875;48.202;16.334;2023-06-10T08:10:57;15.60;;;14.00;;
40154;SDS011;25875;48.202;16.334;2023-06-10T08:13:25;15.45;;;13.95;;
40154;SDS011;25875;48.202;16.334;2023-06-10T08:15:52;15.40;;;13.25;;
40154;SDS011;25875;48.202;16.334;2023-06-10T08:18:20;15.15;;;13.57;;
40154;SDS011;25875;48.202;16.334;2023-06-10T08:20:47;16.38;;;14.70;;
40154;SDS011;25875;48.202;16.334;2023-06-10T08:23:14;15.82;;;14.10;;
40154;SDS011;25875;48.202;16.334;2023-06-10T08:25:41;16.00;;;14.23;;
40154;SDS011;25875;48.202;16.334;2023-06-10T08:28:07;14.07;;;12.68;;
40154;SDS011;25875;48.202;16.334;2023-06-10T08:30:36;15.18;;;13.57;;
40154;SDS011;25875;48.202;16.334;2023-06-10T08:33:02;13.82;;;12.43;;
40154;SDS011;25875;48.202;16.334;2023-06-10T08:35:29;16.73;;;13.43;;
40154;SDS011;25875;48.202;16.334;2023-06-10T08:37:56;20.92;;;14.20;;
40154;SDS011;25875;48.202;16.334;2023-06-10T08:40:23;15.40;;;13.80;;
40154;SDS011;25875;48.202;16.334;2023-06-10T08:42:53;16.00;;;13.23;;
40154;SDS011;25875;48.202;16.334;2023-06-10T08:45:26;15.57;;;13.98;;
40154;SDS011;25875;48.202;16.334;2023-06-10T08:47:57;17.08;;;14.07;;
40154;SDS011;25875;48.202;16.334;2023-06-10T08:50:26;17.30;;;15.40;;
40154;SDS011;25875;48.202;16.334;2023-06-10T08:52:57;19.55;;;17.52;;
40154;SDS011;25875;48.202;16.334;2023-06-10T08:55:27;17.15;;;15.30;;
40154;SDS011;25875;48.202;16.334;2023-06-10T08:57:56;17.00;;;15.20;;
40154;SDS011;25875;48.202;16.334;2023-06-10T09:00:24;16.65;;;14.50;;
40154;SDS011;25875;48.202;16.334;2023-06-10T09:02:52;16.88;;;15.15;;
40154;SDS011;25875;48.202;16.334;2023-06-10T09:05:20;16.08;;;14.48;;
40154;SDS011;25875;48.202;16.334;2023-06-10T09:07:47;16.60;;;14.90;;
40154;SDS011;25875;48.202;16.334;2023-06-10T09:10:14;21.30;;;15.07;;
40154;SDS011;25875;48.202;16.334;2023-06-10T09:12:42;16.63;;;13.60;;
40154;SDS011;25875;48.202;16.334;2023-06-10T09:15:09;14.70;;;13.35;;
40154;SDS011;25875;48.202;16.334;2023-06-10T09:17:37;18.50;;;12.90;;
40154;SDS011;25875;48.202;16.334;2023-06-10T09:20:06;15.00;;;13.50;;
40154;SDS011;25875;48.202;16.334;2023-06-10T09:22:35;14.98;;;13.35;;
40154;SDS011;25875;48.202;16.334;2023-06-10T09:25:02;14.23;;;12.88;;
40154;SDS011;25875;48.202;16.334;2023-06-10T09:27:30;14.38;;;13.07;;
40154;SDS011;25875;48.202;16.334;2023-06-10T09:29:58;16.23;;;13.43;;
40154;SDS011;25875;48.202;16.334;2023-06-10T09:32:25;14.50;;;12.82;;
40154;SDS011;25875;48.202;16.334;2023-06-10T09:34:52;15.90;;;14.30;;
40154;SDS011;25875;48.202;16.334;2023-06-10T09:37:20;13.98;;;12.38;;
40154;SDS011;25875;48.202;16.334;2023-06-10T09:40:01;14.82;;;13.07;;
40154;SDS011;25875;48.202;16.334;2023-06-10T09:42:32;13.75;;;12.35;;
40154;SDS011;25875;48.202;16.334;2023-06-10T09:45:00;18.10;;;15.15;;
40154;SDS011;25875;48.202;16.334;2023-06-10T09:47:27;14.23;;;12.82;;
40154;SDS011;25875;48.202;16.334;2023-06-10T09:49:53;16.75;;;15.00;;
40154;SDS011;25875;48.202;16.334;2023-06-10T09:52:23;19.08;;;14.30;;
40154;SDS011;25875;48.202;16.334;2023-06-10T09:54:50;15.70;;;13.98;;
40154;SDS011;25875;48.202;16.334;2023-06-10T09:57:19;14.55;;;13.18;;
40154;SDS011;25875;48.202;16.334;2023-06-10T09:59:47;14.90;;;13.43;;
40154;SDS011;25875;48.202;16.334;2023-06-10T10:02:18;13.10;;;11.73;;
40154;SDS011;25875;48.202;16.334;2023-06-10T10:04:45;13.32;;;12.02;;
40154;SDS011;25875;48.202;16.334;2023-06-10T10:07:12;14.82;;;12.35;;
40154;SDS011;25875;48.202;16.334;2023-06-10T10:09:40;13.02;;;11.32;;
40154;SDS011;25875;48.202;16.334;2023-06-10T10:12:08;12.60;;;11.30;;
40154;SDS011;25875;48.202;16.334;2023-06-10T10:14:38;13.65;;;12.35;;
40154;SDS011;25875;48.202;16.334;2023-06-10T10:17:10;12.10;;;10.90;;
40154;SDS011;25875;48.202;16.334;2023-06-10T10:19:39;13.60;;;11.70;;
40154;SDS011;25875;48.202;16.334;2023-06-10T10:22:15;12.68;;;11.35;;
40154;SDS011;25875;48.202;16.334;2023-06-10T10:24:46;13.55;;;12.15;;
40154;SDS011;25875;48.202;16.334;2023-06-10T10:27:17;12.73;;;11.02;;
40154;SDS011;25875;48.202;16.334;2023-06-10T10:29:49;12.40;;;11.20;;
40154;SDS011;25875;48.202;16.334;2023-06-10T10:32:18;12.80;;;10.95;;
40154;SDS011;25875;48.202;16.334;2023-06-10T10:34:53;12.87;;;11.17;;
40154;SDS011;25875;48.202;16.334;2023-06-10T10:37:30;13.55;;;12.20;;
40154;SDS011;25875;48.202;16.334;2023-06-10T10:39:57;11.30;;;10.15;;
40154;SDS011;25875;48.202;16.334;2023-06-10T10:42:25;11.95;;;10.85;;
40154;SDS011;25875;48.202;16.334;2023-06-10T10:44:54;12.35;;;11.05;;
40154;SDS011;25875;48.202;16.334;2023-06-10T10:47:22;11.27;;;10.13;;
40154;SDS011;25875;48.202;16.334;2023-06-10T10:49:55;12.82;;;11.52;;
40154;SDS011;25875;48.202;16.334;2023-06-10T10:52:24;11.88;;;10.68;;
40154;SDS011;25875;48.202;16.334;2023-06-10T10:54:52;11.60;;;9.63;;
40154;SDS011;25875;48.202;16.334;2023-06-10T10:57:20;11.40;;;10.30;;
40154;SDS011;25875;48.202;16.334;2023-06-10T10:59:52;10.50;;;9.50;;
40154;SDS011;25875;48.202;16.334;2023-06-10T11:02:35;12.18;;;10.18;;
40154;SDS011;25875;48.202;16.334;2023-06-10T11:05:05;10.35;;;9.35;;
40154;SDS011;25875;48.202;16.334;2023-06-10T11:07:33;11.10;;;10.10;;
40154;SDS011;25875;48.202;16.334;2023-06-10T11:10:02;11.30;;;10.10;;
40154;SDS011;25875;48.202;16.334;2023-06-10T11:12:40;9.88;;;8.88;;
40154;SDS011;25875;48.202;16.334;2023-06-10T11:15:10;9.80;;;8.82;;
40154;SDS011;25875;48.202;16.334;2023-06-10T11:17:36;10.02;;;9.02;;
40154;SDS011;25875;48.202;16.334;2023-06-10T11:20:03;10.98;;;9.88;;
40154;SDS011;25875;48.202;16.334;2023-06-10T11:22:32;10.82;;;9.73;;
40154;SDS011;25875;48.202;16.334;2023-06-10T11:24:59;9.68;;;8.77;;
40154;SDS011;25875;48.202;16.334;2023-06-10T11:27:26;13.48;;;10.15;;
40154;SDS011;25875;48.202;16.334;2023-06-10T11:30:21;10.55;;;9.55;;
40154;SDS011;25875;48.202;16.334;2023-06-10T11:32:52;10.18;;;9.15;;
40154;SDS011;25875;48.202;16.334;2023-06-10T11:35:19;11.20;;;9.73;;
40154;SDS011;25875;48.202;16.334;2023-06-10T11:37:50;11.18;;;10.00;;
40154;SDS011;25875;48.202;16.334;2023-06-10T11:40:16;10.93;;;9.82;;
40154;SDS011;25875;48.202;16.334;2023-06-10T11:42:43;11.98;;;9.32;;
40154;SDS011;25875;48.202;16.334;2023-06-10T11:45:14;11.45;;;10.35;;
40154;SDS011;25875;48.202;16.334;2023-06-10T11:47:56;9.00;;;8.10;;
40154;SDS011;25875;48.202;16.334;2023-06-10T11:50:30;10.85;;;9.02;;
40154;SDS011;25875;48.202;16.334;2023-06-10T11:55:24;10.55;;;9.10;;
40154;SDS011;25875;48.202;16.334;2023-06-10T11:57:51;11.55;;;10.45;;
40154;SDS011;25875;48.202;16.334;2023-06-10T12:00:22;10.30;;;9.30;;
40154;SDS011;25875;48.202;16.334;2023-06-10T12:02:55;10.30;;;8.88;;
40154;SDS011;25875;48.202;16.334;2023-06-10T12:05:23;11.05;;;10.00;;
40154;SDS011;25875;48.202;16.334;2023-06-10T12:10:39;9.68;;;8.73;;
40154;SDS011;25875;48.202;16.334;2023-06-10T12:13:06;10.15;;;8.90;;
40154;SDS011;25875;48.202;16.334;2023-06-10T12:15:34;10.38;;;9.23;;
40154;SDS011;25875;48.202;16.334;2023-06-10T12:18:02;10.75;;;9.65;;
40154;SDS011;25875;48.202;16.334;2023-06-10T12:20:30;9.60;;;8.70;;
40154;SDS011;25875;48.202;16.334;2023-06-10T12:22:59;10.30;;;8.32;;
40154;SDS011;25875;48.202;16.334;2023-06-10T12:25:26;9.85;;;8.85;;
40154;SDS011;25875;48.202;16.334;2023-06-10T12:27:56;9.63;;;8.68;;
40154;SDS011;25875;48.202;16.334;2023-06-10T12:30:24;9.90;;;8.90;;
40154;SDS011;25875;48.202;16.334;2023-06-10T12:32:52;9.13;;;8.27;;
40154;SDS011;25875;48.202;16.334;2023-06-10T12:35:22;8.65;;;7.85;;
40154;SDS011;25875;48.202;16.334;2023-06-10T12:37:57;10.15;;;9.07;;
40154;SDS011;25875;48.202;16.334;2023-06-10T12:40:26;9.10;;;8.20;;
40154;SDS011;25875;48.202;16.334;2023-06-10T12:44:17;9.60;;;8.70;;
40154;SDS011;25875;48.202;16.334;2023-06-10T12:46:44;10.50;;;8.07;;
40154;SDS011;25875;48.202;16.334;2023-06-10T12:49:18;11.38;;;10.23;;
40154;SDS011;25875;48.202;16.334;2023-06-10T12:51:46;13.30;;;10.93;;
40154;SDS011;25875;48.202;16.334;2023-06-10T12:54:13;17.05;;;13.27;;
40154;SDS011;25875;48.202;16.334;2023-06-10T12:56:40;14.20;;;12.80;;
40154;SDS011;25875;48.202;16.334;2023-06-10T12:59:07;13.18;;;11.77;;
40154;SDS011;25875;48.202;16.334;2023-06-10T13:01:36;163.75;;;27.13;;
40154;SDS011;25875;48.202;16.334;2023-06-10T13:04:04;14.63;;;10.75;;
40154;SDS011;25875;48.202;16.334;2023-06-10T13:06:31;13.20;;;9.50;;
40154;SDS011;25875;48.202;16.334;2023-06-10T13:09:01;10.98;;;9.75;;
40154;SDS011;25875;48.202;16.334;2023-06-10T13:11:29;11.13;;;8.23;;
40154;SDS011;25875;48.202;16.334;2023-06-10T13:13:55;14.00;;;9.35;;
40154;SDS011;25875;48.202;16.334;2023-06-10T13:16:22;10.77;;;8.55;;
40154;SDS011;25875;48.202;16.334;2023-06-10T13:18:51;10.40;;;9.43;;
40154;SDS011;25875;48.202;16.334;2023-06-10T13:21:19;9.55;;;8.55;;
40154;SDS011;25875;48.202;16.334;2023-06-10T13:23:46;10.35;;;9.35;;
40154;SDS011;25875;48.202;16.334;2023-06-10T13:26:13;11.10;;;10.00;;
40154;SDS011;25875;48.202;16.334;2023-06-10T13:28:41;11.35;;;9.57;;
40154;SDS011;25875;48.202;16.334;2023-06-10T13:31:08;10.50;;;9.50;;
40154;SDS011;25875;48.202;16.334;2023-06-10T13:33:35;12.65;;;10.25;;
40154;SDS011;25875;48.202;16.334;2023-06-10T13:36:03;21.48;;;19.05;;
40154;SDS011;25875;48.202;16.334;2023-06-10T13:38:30;10.95;;;9.13;;
40154;SDS011;25875;48.202;16.334;2023-06-10T13:40:57;9.73;;;8.77;;
40154;SDS011;25875;48.202;16.334;2023-06-10T13:43:24;9.90;;;9.00;;
40154;SDS011;25875;48.202;16.334;2023-06-10T13:45:50;13.68;;;10.60;;
40154;SDS011;25875;48.202;16.334;2023-06-10T13:48:17;10.90;;;9.77;;
40154;SDS011;25875;48.202;16.334;2023-06-10T13:50:45;9.27;;;8.38;;
40154;SDS011;25875;48.202;16.334;2023-06-10T13:53:13;9.48;;;8.57;;
40154;SDS011;25875;48.202;16.334;2023-06-10T13:55:40;10.35;;;9.07;;
40154;SDS011;25875;48.202;16.334;2023-06-10T13:58:06;9.43;;;8.57;;
40154;SDS011;25875;48.202;16.334;2023-06-10T14:00:33;9.95;;;8.88;;
40154;SDS011;25875;48.202;16.334;2023-06-10T14:03:00;9.68;;;8.63;;
40154;SDS011;25875;48.202;16.334;2023-06-10T14:05:28;9.25;;;8.35;;
40154;SDS011;25875;48.202;16.334;2023-06-10T14:07:55;10.23;;;8.93;;
40154;SDS011;25875;48.202;16.334;2023-06-10T14:10:23;11.07;;;9.23;;
40154;SDS011;25875;48.202;16.334;2023-06-10T14:12:50;9.38;;;8.38;;
40154;SDS011;25875;48.202;16.334;2023-06-10T14:15:17;9.20;;;8.27;;
40154;SDS011;25875;48.202;16.334;2023-06-10T14:17:44;11.10;;;9.18;;
40154;SDS011;25875;48.202;16.334;2023-06-10T14:20:11;10.68;;;9.63;;
40154;SDS011;25875;48.202;16.334;2023-06-10T14:22:38;10.60;;;9.60;;
40154;SDS011;25875;48.202;16.334;2023-06-10T14:25:05;11.00;;;9.90;;
40154;SDS011;25875;48.202;16.334;2023-06-10T14:27:34;10.43;;;9.43;;
40154;SDS011;25875;48.202;16.334;2023-06-10T14:30:01;13.48;;;9.85;;